createdAt,value
2014-09-24T00:00:10.120Z,66.26
2014-09-24T00:01:14.811Z,67.17
2014-09-24T00:02:19.485Z,67.66
2014-09-24T00:03:24.159Z,67.99
2014-09-24T00:04:28.849Z,67.3
2014-09-24T00:05:33.820Z,66.74
2014-09-24T00:06:38.494Z,66.83
2014-09-24T00:07:43.183Z,66.45
2014-09-24T00:08:48.154Z,66.29
2014-09-24T00:09:52.844Z,65.96
2014-09-24T00:10:57.518Z,65.97
2014-09-24T00:12:02.489Z,67.06
2014-09-24T00:13:07.178Z,66.5
2014-09-24T00:14:12.149Z,66.41
2014-09-24T00:15:16.823Z,67.33
2014-09-24T00:16:21.512Z,68.07
2014-09-24T00:17:26.186Z,68.78
2014-09-24T00:18:30.861Z,69.17
2014-09-24T00:19:35.550Z,67.92
2014-09-24T00:20:40.521Z,67.33
2014-09-24T00:21:45.210Z,66.7
2014-09-24T00:22:49.884Z,66.61
2014-09-24T00:23:54.558Z,66.57
2014-09-24T00:24:59.248Z,67.58
2014-09-24T00:26:03.922Z,67.46
2014-09-24T00:27:08.893Z,67.08
2014-09-24T00:28:13.895Z,66.98
2014-09-24T00:29:18.569Z,67.02
2014-09-24T00:30:23.259Z,68.16
2014-09-24T00:31:28.229Z,68.11
2014-09-24T00:32:33.216Z,67.63
2014-09-24T00:33:37.890Z,67.61
2014-09-24T00:34:42.563Z,67.53
2014-09-24T00:35:47.253Z,66.85
2014-09-24T00:36:52.224Z,66.81
2014-09-24T00:37:57.211Z,67.23
2014-09-24T00:39:02.181Z,67.23
2014-09-24T00:40:06.855Z,66.93
2014-09-24T00:41:11.545Z,67.18
2014-09-24T00:42:16.515Z,68.87
2014-09-24T00:43:21.205Z,68.59
2014-09-24T00:44:26.176Z,67.49
2014-09-24T00:45:30.866Z,66.58
2014-09-24T00:46:35.540Z,67.83
2014-09-24T00:47:40.229Z,67.07
2014-09-24T00:48:45.200Z,67.89
2014-09-24T00:49:49.874Z,68.19
2014-09-24T00:50:54.860Z,68.11
2014-09-24T00:51:59.534Z,67.71
2014-09-24T00:53:04.223Z,66.71
2014-09-24T00:54:08.898Z,66.06
2014-09-24T00:55:13.884Z,66.43
2014-09-24T00:56:18.559Z,66.53
2014-09-24T00:57:23.248Z,66.18
2014-09-24T00:58:27.921Z,65.87
2014-09-24T00:59:32.595Z,66.85
2014-09-24T01:00:37.269Z,67.88
2014-09-24T01:01:41.959Z,68.37
2014-09-24T01:02:46.648Z,69.1
2014-09-24T01:03:51.619Z,68.72
2014-09-24T01:04:56.309Z,68.13
2014-09-24T01:06:01.577Z,68.12
2014-09-24T01:07:06.563Z,67.23
2014-09-24T01:08:11.237Z,66.88
2014-09-24T01:09:15.927Z,66.17
2014-09-24T01:10:20.897Z,65.93
2014-09-24T01:11:25.588Z,66.19
2014-09-24T01:12:30.574Z,66.69
2014-09-24T01:13:35.247Z,66.06
2014-09-24T01:14:40.531Z,65.88
2014-09-24T01:15:45.502Z,65.93
2014-09-24T01:16:50.487Z,66.34
2014-09-24T01:17:54.475Z,65.98
2014-09-24T01:18:59.164Z,66.58
2014-09-24T01:20:03.838Z,66.79
2014-09-24T01:21:08.527Z,66.25
2014-09-24T01:22:13.498Z,65.73
2014-09-24T01:23:18.188Z,66.09
2014-09-24T01:24:22.863Z,66.55
2014-09-24T01:25:27.848Z,66.16
2014-09-24T01:26:32.819Z,65.93
2014-09-24T01:27:37.509Z,66.97
2014-09-24T01:28:42.480Z,67.39
2014-09-24T01:29:47.169Z,66.75
2014-09-24T01:30:51.843Z,66.2
2014-09-24T01:31:56.830Z,67.43
2014-09-24T01:33:01.504Z,66.41
2014-09-24T01:34:06.193Z,65.98
2014-09-24T01:35:10.867Z,66.77
2014-09-24T01:36:16.150Z,67.75
2014-09-24T01:37:20.824Z,68.05
2014-09-24T01:38:25.515Z,68.03
2014-09-24T01:39:30.188Z,68.56
2014-09-24T01:40:35.174Z,68.53
2014-09-24T01:41:40.145Z,68.03
2014-09-24T01:42:44.835Z,68.46
2014-09-24T01:43:49.509Z,68.98
2014-09-24T01:44:54.494Z,69.01
2014-09-24T01:45:59.169Z,69.18
2014-09-24T01:47:03.859Z,69.66
2014-09-24T01:48:08.533Z,69.21
2014-09-24T01:49:13.519Z,69.27
2014-09-24T01:50:18.193Z,69.36
2014-09-24T01:51:23.180Z,69.23
2014-09-24T01:52:27.853Z,68.1
2014-09-24T01:53:32.840Z,67.33
2014-09-24T01:54:37.514Z,67.41
2014-09-24T01:55:42.797Z,67.02
2014-09-24T01:56:47.487Z,67.31
2014-09-24T01:57:52.160Z,67.89
2014-09-24T01:58:57.147Z,67.96
2014-09-24T02:00:02.118Z,68.03
2014-09-24T02:01:07.104Z,68.64
2014-09-24T02:02:11.794Z,69
2014-09-24T02:03:16.468Z,69.23
2014-09-24T02:04:21.439Z,68.77
2014-09-24T02:05:26.425Z,68.2
2014-09-24T02:06:31.099Z,67.3
2014-09-24T02:07:35.788Z,66.96
2014-09-24T02:08:41.056Z,66.85
2014-09-24T02:09:45.745Z,66.82
2014-09-24T02:10:50.717Z,66.65
2014-09-24T02:11:55.438Z,67.05
2014-09-24T02:13:00.126Z,67.32
2014-09-24T02:14:04.817Z,67.35
2014-09-24T02:15:09.803Z,66.74
2014-09-24T02:16:14.774Z,66.44
2014-09-24T02:17:19.464Z,66.36
2014-09-24T02:18:24.137Z,66.11
2014-09-24T02:19:28.844Z,66.29
2014-09-24T02:20:33.533Z,65.75
2014-09-24T02:21:38.206Z,65.79
2014-09-24T02:22:42.895Z,65.61
2014-09-24T02:23:47.570Z,65.49
2014-09-24T02:24:52.541Z,65.35
2014-09-24T02:25:57.231Z,65.77
2014-09-24T02:27:02.217Z,65.74
2014-09-24T02:28:06.890Z,65.9
2014-09-24T02:29:11.579Z,65.97
2014-09-24T02:30:16.254Z,67.49
2014-09-24T02:31:21.241Z,68.06
2014-09-24T02:32:25.914Z,67.71
2014-09-24T02:33:30.604Z,66
2014-09-24T02:34:35.278Z,65.76
2014-09-24T02:35:39.952Z,65.85
2014-09-24T02:36:44.939Z,65.99
2014-09-24T02:37:49.612Z,66.26
2014-09-24T02:38:54.301Z,66.59
2014-09-24T02:39:58.976Z,67.46
2014-09-24T02:41:03.963Z,68.02
2014-09-24T02:42:08.637Z,67.89
2014-09-24T02:43:13.623Z,66.66
2014-09-24T02:44:18.594Z,67.13
2014-09-24T02:45:23.283Z,66.66
2014-09-24T02:46:27.957Z,67.7
2014-09-24T02:47:32.647Z,67.78
2014-09-24T02:48:37.320Z,67.14
2014-09-24T02:49:42.307Z,66.91
2014-09-24T02:50:46.981Z,67.05
2014-09-24T02:51:51.671Z,67.63
2014-09-24T02:52:56.641Z,68.3
2014-09-24T02:54:01.330Z,68.37
2014-09-24T02:55:06.302Z,68.38
2014-09-24T02:56:10.992Z,68.2
2014-09-24T02:57:15.962Z,67.51
2014-09-24T02:58:20.636Z,66.73
2014-09-24T02:59:25.341Z,66.63
2014-09-24T03:00:30.031Z,66.39
2014-09-24T03:01:34.705Z,66.92
2014-09-24T03:02:39.379Z,68.78
2014-09-24T03:03:44.069Z,69.14
2014-09-24T03:04:49.336Z,68.82
2014-09-24T03:05:54.025Z,68.56
2014-09-24T03:06:58.012Z,68.72
2014-09-24T03:08:02.983Z,68.92
2014-09-24T03:09:07.969Z,68.71
2014-09-24T03:10:12.643Z,68.64
2014-09-24T03:11:17.630Z,68.86
2014-09-24T03:12:22.304Z,68.99
2014-09-24T03:13:26.977Z,69.2
2014-09-24T03:14:31.667Z,69.07
2014-09-24T03:15:36.935Z,67.73
2014-09-24T03:16:41.921Z,67.25
2014-09-24T03:17:46.595Z,67.86
2014-09-24T03:18:51.269Z,69.13
2014-09-24T03:19:55.943Z,68.54
2014-09-24T03:21:00.929Z,68.52
2014-09-24T03:22:05.603Z,69.05
2014-09-24T03:23:10.277Z,68.32
2014-09-24T03:24:15.263Z,67.41
2014-09-24T03:25:19.938Z,67.01
2014-09-24T03:26:24.612Z,66.96
2014-09-24T03:27:29.317Z,66.58
2014-09-24T03:28:34.007Z,66.83
2014-09-24T03:29:38.680Z,66.47
2014-09-24T03:30:43.355Z,66.12
2014-09-24T03:31:48.341Z,67.29
2014-09-24T03:32:53.015Z,68.32
2014-09-24T03:33:57.689Z,67.96
2014-09-24T03:35:02.379Z,68.6
2014-09-24T03:36:07.052Z,68.77
2014-09-24T03:37:12.320Z,68.89
2014-09-24T03:38:17.307Z,69.06
2014-09-24T03:39:21.980Z,69.17
2014-09-24T03:40:26.654Z,67.7
2014-09-24T03:41:31.328Z,67.22
2014-09-24T03:42:36.018Z,68.95
2014-09-24T03:43:40.989Z,68.96
2014-09-24T03:44:45.678Z,68.42
2014-09-24T03:45:50.352Z,67.22
2014-09-24T03:46:55.323Z,66.52
2014-09-24T03:48:00.013Z,66.55
2014-09-24T03:49:04.686Z,66.81
2014-09-24T03:50:09.360Z,66.48
2014-09-24T03:51:14.050Z,66.64
2014-09-24T03:52:18.036Z,66.42
2014-09-24T03:53:22.726Z,67.66
2014-09-24T03:54:27.697Z,67.87
2014-09-24T03:55:32.371Z,67.04
2014-09-24T03:56:37.061Z,66.53
2014-09-24T03:57:41.734Z,66.35
2014-09-24T03:58:46.409Z,66.3
2014-09-24T03:59:51.114Z,65.74
2014-09-24T04:00:55.788Z,65.96
2014-09-24T04:02:00.461Z,66.13
2014-09-24T04:03:05.151Z,67.52
2014-09-24T04:04:09.840Z,67.93
2014-09-24T04:05:14.514Z,67.96
2014-09-24T04:06:19.188Z,68.14
2014-09-24T04:07:23.878Z,68.22
2014-09-24T04:08:28.553Z,68.59
2014-09-24T04:09:33.242Z,68.86
2014-09-24T04:10:37.915Z,68.85
2014-09-24T04:11:42.589Z,68.67
2014-09-24T04:12:47.575Z,69.03
2014-09-24T04:13:52.250Z,69.25
2014-09-24T04:14:56.924Z,69.31
2014-09-24T04:16:01.613Z,69.4
2014-09-24T04:17:06.287Z,68.64
2014-09-24T04:18:10.961Z,67.21
2014-09-24T04:19:15.651Z,66.76
2014-09-24T04:20:20.326Z,66.69
2014-09-24T04:21:25.015Z,66.5
2014-09-24T04:22:29.688Z,66.39
2014-09-24T04:23:34.362Z,66.18
2014-09-24T04:24:39.036Z,66.97
2014-09-24T04:25:43.711Z,68.52
2014-09-24T04:26:48.993Z,68.66
2014-09-24T04:27:53.667Z,69.07
2014-09-24T04:28:58.357Z,69.03
2014-09-24T04:30:03.031Z,69.22
2014-09-24T04:31:07.705Z,67.71
2014-09-24T04:32:12.394Z,67.39
2014-09-24T04:33:17.068Z,67.32
2014-09-24T04:34:21.742Z,67.01
2014-09-24T04:35:26.416Z,68.18
2014-09-24T04:36:31.402Z,67.76
2014-09-24T04:37:36.077Z,67.45
2014-09-24T04:38:40.750Z,68.09
2014-09-24T04:39:45.424Z,68.75
2014-09-24T04:40:50.114Z,68.16
2014-09-24T04:41:54.788Z,67.33
2014-09-24T04:42:59.462Z,67.55
2014-09-24T04:44:04.136Z,68.05
2014-09-24T04:45:08.137Z,67.67
2014-09-24T04:46:12.812Z,68.23
2014-09-24T04:47:18.095Z,67.87
2014-09-24T04:48:23.066Z,67.16
2014-09-24T04:49:27.740Z,66.99
2014-09-24T04:50:32.430Z,66.96
2014-09-24T04:51:37.103Z,67.69
2014-09-24T04:52:41.777Z,67.58
2014-09-24T04:53:46.451Z,68.81
2014-09-24T04:54:51.141Z,67.94
2014-09-24T04:55:55.815Z,68.54
2014-09-24T04:57:00.505Z,68.79
2014-09-24T04:58:05.490Z,68.43
2014-09-24T04:59:10.165Z,68.9
2014-09-24T05:00:14.839Z,68.75
2014-09-24T05:01:19.513Z,68.11
2014-09-24T05:02:24.187Z,67.42
2014-09-24T05:03:28.876Z,66.74
2014-09-24T05:04:33.566Z,67.42
2014-09-24T05:05:38.240Z,67.22
2014-09-24T05:06:43.508Z,66.71
2014-09-24T05:07:48.181Z,66.64
2014-09-24T05:08:52.871Z,66.47
2014-09-24T05:09:57.842Z,66.23
2014-09-24T05:11:02.516Z,66.37
2014-09-24T05:12:07.205Z,67.35
2014-09-24T05:13:11.879Z,68.52
2014-09-24T05:14:16.554Z,68.55
2014-09-24T05:15:21.243Z,67.82
2014-09-24T05:16:25.917Z,67.43
2014-09-24T05:17:30.591Z,66.61
2014-09-24T05:18:35.280Z,66.26
2014-09-24T05:19:40.251Z,65.99
2014-09-24T05:20:44.925Z,66.46
2014-09-24T05:21:49.911Z,67.78
2014-09-24T05:22:54.585Z,68.09
2014-09-24T05:23:59.259Z,67.08
2014-09-24T05:25:03.949Z,66.4
2014-09-24T05:26:08.623Z,66.36
2014-09-24T05:27:13.297Z,66.82
2014-09-24T05:28:17.987Z,67.14
2014-09-24T05:29:22.666Z,67.54
2014-09-24T05:30:27.641Z,67.69
2014-09-24T05:31:32.315Z,67.49
2014-09-24T05:32:37.301Z,66.77
2014-09-24T05:33:42.272Z,66.28
2014-09-24T05:34:46.946Z,66.5
2014-09-24T05:35:51.620Z,66.27
2014-09-24T05:36:56.309Z,66.96
2014-09-24T05:38:01.296Z,68.36
2014-09-24T05:39:06.267Z,67.51
2014-09-24T05:40:10.941Z,67.26
2014-09-24T05:41:15.615Z,66.9
2014-09-24T05:42:20.601Z,65.97
2014-09-24T05:43:25.572Z,66.2
2014-09-24T05:44:30.262Z,67.04
2014-09-24T05:45:34.936Z,67
2014-09-24T05:46:39.610Z,66.54
2014-09-24T05:47:44.284Z,66.02
2014-09-24T05:48:49.270Z,65.73
2014-09-24T05:49:53.944Z,66.11
2014-09-24T05:50:58.618Z,65.92
2014-09-24T05:52:03.308Z,66.23
2014-09-24T05:53:07.997Z,66.41
2014-09-24T05:54:12.687Z,65.88
2014-09-24T05:55:17.657Z,65.63
2014-09-24T05:56:22.378Z,65.49
2014-09-24T05:57:27.068Z,65.06
2014-09-24T05:58:31.055Z,65.17
2014-09-24T05:59:35.728Z,65.26
2014-09-24T06:00:40.418Z,65.21
2014-09-24T06:01:45.092Z,66.03
2014-09-24T06:02:49.766Z,65.68
2014-09-24T06:03:54.456Z,65.61
2014-09-24T06:04:59.129Z,65.16
2014-09-24T06:06:03.850Z,64.67
2014-09-24T06:07:08.524Z,64.39
2014-09-24T06:08:13.199Z,64.17
2014-09-24T06:09:17.887Z,64
2014-09-24T06:10:22.561Z,63.52
2014-09-24T06:11:27.235Z,63.55
2014-09-24T06:12:31.924Z,63
2014-09-24T06:13:36.599Z,61.72
2014-09-24T06:14:41.273Z,59.97
2014-09-24T06:15:45.963Z,59.03
2014-09-24T06:16:50.636Z,57.42
2014-09-24T06:17:55.623Z,56.08
2014-09-24T06:19:00.297Z,57.51
2014-09-24T06:20:04.987Z,56.05
2014-09-24T06:21:09.660Z,52.96
2014-09-24T06:22:14.350Z,50.58
2014-09-24T06:23:19.321Z,48.37
2014-09-24T06:24:24.010Z,45.83
2014-09-24T06:25:28.997Z,42.75
2014-09-24T06:26:33.670Z,40.71
2014-09-24T06:27:38.364Z,39.69
2014-09-24T06:28:43.055Z,37.8
2014-09-24T06:29:47.743Z,35.83
2014-09-24T06:30:52.434Z,35.48
2014-09-24T06:31:57.123Z,34.19
2014-09-24T06:33:01.813Z,32.76
2014-09-24T06:34:06.799Z,32.65
2014-09-24T06:35:11.489Z,32.1
2014-09-24T06:36:16.178Z,31.87
2014-09-24T06:37:20.868Z,31.7
2014-09-24T06:38:25.558Z,31.63
2014-09-24T06:39:30.247Z,30.95
2014-09-24T06:40:34.937Z,30.54
2014-09-24T06:41:39.626Z,30.77
2014-09-24T06:42:44.316Z,31.52
2014-09-24T06:43:49.020Z,30.74
2014-09-24T06:44:53.711Z,31
2014-09-24T06:45:58.604Z,31.68
2014-09-24T06:47:03.309Z,29.85
2014-09-24T06:48:08.014Z,30.13
2014-09-24T06:49:12.703Z,30.65
2014-09-24T06:50:17.393Z,30.6
2014-09-24T06:51:22.082Z,30.59
2014-09-24T06:52:26.787Z,32.92
2014-09-24T06:53:31.478Z,32.75
2014-09-24T06:54:36.167Z,31.27
2014-09-24T06:55:40.856Z,30.24
2014-09-24T06:56:45.546Z,29.78
2014-09-24T06:57:50.235Z,28.99
2014-09-24T06:58:54.925Z,29.02
2014-09-24T06:59:59.615Z,30.38
2014-09-24T07:01:04.304Z,31.54
2014-09-24T07:02:09.010Z,31.23
2014-09-24T07:03:13.699Z,31.29
2014-09-24T07:04:18.389Z,33.47
2014-09-24T07:05:23.078Z,34.88
2014-09-24T07:06:27.769Z,36.73
2014-09-24T07:07:32.770Z,39.83
2014-09-24T07:08:37.460Z,40.27
2014-09-24T07:09:42.149Z,41.15
2014-09-24T07:10:46.839Z,43.67
2014-09-24T07:11:51.528Z,44.56
2014-09-24T07:12:56.515Z,45.38
2014-09-24T07:14:01.203Z,46.05
2014-09-24T07:15:05.894Z,47.42
2014-09-24T07:16:10.583Z,48.67
2014-09-24T07:17:15.273Z,49.2
2014-09-24T07:18:19.962Z,49.44
2014-09-24T07:19:24.652Z,49.95
2014-09-24T07:20:29.326Z,50.09
2014-09-24T07:21:34.015Z,50.12
2014-09-24T07:22:38.705Z,51.02
2014-09-24T07:23:43.395Z,51.06
2014-09-24T07:24:48.382Z,51.35
2014-09-24T07:25:53.352Z,52.49
2014-09-24T07:26:58.041Z,52.83
2014-09-24T07:28:02.730Z,52.78
2014-09-24T07:29:07.405Z,52.72
2014-09-24T07:30:12.094Z,53.03
2014-09-24T07:31:17.066Z,53.48
2014-09-24T07:32:21.755Z,53.4
2014-09-24T07:33:26.429Z,53.56
2014-09-24T07:34:31.118Z,53.24
2014-09-24T07:35:35.792Z,52.84
2014-09-24T07:36:40.497Z,55.29
2014-09-24T07:37:45.171Z,53.64
2014-09-24T07:38:50.158Z,54.44
2014-09-24T07:39:54.833Z,53.3
2014-09-24T07:40:59.522Z,52.93
2014-09-24T07:42:04.195Z,53.07
2014-09-24T07:43:08.885Z,52.81
2014-09-24T07:44:13.559Z,53.33
2014-09-24T07:45:18.249Z,53.8
2014-09-24T07:46:22.922Z,53.43
2014-09-24T07:47:27.909Z,53.31
2014-09-24T07:48:32.583Z,54.03
2014-09-24T07:49:37.866Z,54.01
2014-09-24T07:50:42.540Z,52.85
2014-09-24T07:51:47.230Z,53.64
2014-09-24T07:52:51.904Z,52.59
2014-09-24T07:53:56.593Z,52.23
2014-09-24T07:55:01.267Z,52.36
2014-09-24T07:56:06.270Z,51.69
2014-09-24T07:57:10.958Z,52.45
2014-09-24T07:58:15.633Z,51.97
2014-09-24T07:59:20.323Z,52.73
2014-09-24T08:00:25.309Z,52.99
2014-09-24T08:01:29.983Z,52.62
2014-09-24T08:02:34.969Z,52.96
2014-09-24T08:03:39.643Z,52.92
2014-09-24T08:04:44.333Z,53.11
2014-09-24T08:05:49.008Z,53.37
2014-09-24T08:06:53.993Z,54.13
2014-09-24T08:07:58.964Z,51.96
2014-09-24T08:09:03.654Z,51.91
2014-09-24T08:10:07.641Z,54.82
2014-09-24T08:11:12.329Z,53.43
2014-09-24T08:12:17.003Z,52.94
2014-09-24T08:13:21.990Z,53.38
2014-09-24T08:14:26.977Z,53.41
2014-09-24T08:15:31.651Z,52.66
2014-09-24T08:16:36.340Z,53.38
2014-09-24T08:17:41.030Z,54.46
2014-09-24T08:18:45.703Z,53.21
2014-09-24T08:19:50.690Z,53.99
2014-09-24T08:20:54.692Z,54.2
2014-09-24T08:21:59.366Z,54.07
2014-09-24T08:23:04.353Z,54.23
2014-09-24T08:24:09.026Z,54.16
2014-09-24T08:25:13.715Z,54.28
2014-09-24T08:26:18.687Z,53.46
2014-09-24T08:27:23.673Z,54.32
2014-09-24T08:28:28.347Z,54.03
2014-09-24T08:29:33.037Z,53.59
2014-09-24T08:30:37.023Z,53.75
2014-09-24T08:31:42.009Z,54.65
2014-09-24T08:32:46.715Z,54.48
2014-09-24T08:33:51.389Z,54.55
2014-09-24T08:34:56.078Z,53.32
2014-09-24T08:36:01.065Z,54.03
2014-09-24T08:37:05.738Z,55.01
2014-09-24T08:38:10.412Z,54.82
2014-09-24T08:39:15.102Z,54.84
2014-09-24T08:40:19.776Z,53.46
2014-09-24T08:41:24.466Z,54.72
2014-09-24T08:42:29.139Z,55.19
2014-09-24T08:43:33.829Z,55.56
2014-09-24T08:44:38.542Z,55.27
2014-09-24T08:45:43.571Z,55.72
2014-09-24T08:46:48.286Z,54.84
2014-09-24T08:47:53.017Z,55.04
2014-09-24T08:48:57.724Z,54.84
2014-09-24T08:50:02.444Z,55.32
2014-09-24T08:51:07.148Z,54.93
2014-09-24T08:52:11.853Z,54.74
2014-09-24T08:53:16.541Z,54.39
2014-09-24T08:54:21.240Z,55.17
2014-09-24T08:55:26.513Z,54.05
2014-09-24T08:56:31.505Z,53.41
2014-09-24T08:57:36.481Z,54.28
2014-09-24T08:58:41.473Z,54.4
2014-09-24T08:59:46.445Z,53.91
2014-09-24T09:00:51.434Z,54.45
2014-09-24T09:01:56.110Z,54.68
2014-09-24T09:03:00.802Z,54.55
2014-09-24T09:04:05.477Z,53.64
2014-09-24T09:05:10.168Z,54.99
2014-09-24T09:06:14.858Z,54.74
2014-09-24T09:07:19.533Z,54.56
2014-09-24T09:08:24.222Z,54.17
2014-09-24T09:09:28.897Z,54.76
2014-09-24T09:10:33.884Z,54.15
2014-09-24T09:11:38.854Z,54.25
2014-09-24T09:12:43.544Z,54.28
2014-09-24T09:13:48.233Z,53.42
2014-09-24T09:14:52.923Z,54.12
2014-09-24T09:15:57.612Z,54.63
2014-09-24T09:17:02.303Z,53.89
2014-09-24T09:18:06.288Z,53.38
2014-09-24T09:19:10.979Z,53.66
2014-09-24T09:20:15.950Z,53.72
2014-09-24T09:21:20.936Z,53.8
2014-09-24T09:22:25.624Z,54.27
2014-09-24T09:23:30.299Z,55.57
2014-09-24T09:24:34.989Z,54.09
2014-09-24T09:25:39.663Z,54.53
2014-09-24T09:26:44.368Z,52.64
2014-09-24T09:27:49.057Z,52.49
2014-09-24T09:28:53.731Z,53.55
2014-09-24T09:29:58.718Z,53.83
2014-09-24T09:31:03.688Z,52.42
2014-09-24T09:32:08.378Z,52.1
2014-09-24T09:33:13.067Z,53.73
2014-09-24T09:34:17.742Z,52.39
2014-09-24T09:35:22.431Z,52.9
2014-09-24T09:36:27.106Z,53.26
2014-09-24T09:37:31.795Z,52.71
2014-09-24T09:38:36.485Z,53.29
2014-09-24T09:39:41.158Z,53.36
2014-09-24T09:40:45.848Z,52.2
2014-09-24T09:41:50.537Z,52.25
2014-09-24T09:42:55.524Z,51.69
2014-09-24T09:43:59.510Z,52.27
2014-09-24T09:45:04.200Z,51.57
2014-09-24T09:46:08.875Z,51.28
2014-09-24T09:47:13.564Z,51.15
2014-09-24T09:48:18.237Z,51.43
2014-09-24T09:49:23.224Z,51.75
2014-09-24T09:50:27.914Z,51.32
2014-09-24T09:51:31.900Z,51.54
2014-09-24T09:52:36.589Z,51.05
2014-09-24T09:53:41.576Z,52.55
2014-09-24T09:54:46.250Z,50.71
2014-09-24T09:55:50.955Z,50.68
2014-09-24T09:56:56.223Z,51.17
2014-09-24T09:58:00.912Z,50.95
2014-09-24T09:59:05.602Z,51.28
2014-09-24T10:00:10.277Z,50.97
2014-09-24T10:01:14.966Z,51.31
2014-09-24T10:02:19.639Z,50.38
2014-09-24T10:03:24.329Z,50.28
2014-09-24T10:04:29.003Z,51.9
2014-09-24T10:05:33.692Z,50.54
2014-09-24T10:06:38.663Z,50.94
2014-09-24T10:07:43.353Z,51.36
2014-09-24T10:08:48.043Z,50.31
2014-09-24T10:09:53.013Z,50.57
2014-09-24T10:10:58.000Z,49.63
2014-09-24T10:12:02.689Z,50.45
2014-09-24T10:13:07.379Z,49.57
2014-09-24T10:14:12.068Z,50.96
2014-09-24T10:15:16.758Z,51.13
2014-09-24T10:16:21.448Z,50.33
2014-09-24T10:17:26.418Z,49.81
2014-09-24T10:18:31.108Z,49.72
2014-09-24T10:19:35.798Z,48.78
2014-09-24T10:20:40.768Z,49.36
2014-09-24T10:21:45.458Z,49.41
2014-09-24T10:22:50.162Z,50.19
2014-09-24T10:23:55.150Z,50.25
2014-09-24T10:24:59.824Z,49.95
2014-09-24T10:26:04.513Z,49.92
2014-09-24T10:27:09.203Z,50.16
2014-09-24T10:28:13.892Z,49.8
2014-09-24T10:29:18.566Z,49.19
2014-09-24T10:30:23.552Z,48.97
2014-09-24T10:31:28.242Z,49.28
2014-09-24T10:32:32.931Z,48.06
2014-09-24T10:33:37.605Z,47.76
2014-09-24T10:34:42.593Z,49.26
2014-09-24T10:35:47.282Z,47.97
2014-09-24T10:36:51.971Z,48.48
2014-09-24T10:37:56.661Z,48.79
2014-09-24T10:39:01.351Z,48.22
2014-09-24T10:40:06.040Z,49.66
2014-09-24T10:41:10.714Z,48.58
2014-09-24T10:42:15.403Z,46.46
2014-09-24T10:43:20.093Z,47.38
2014-09-24T10:44:24.782Z,46.07
2014-09-24T10:45:29.456Z,48.28
2014-09-24T10:46:34.146Z,45.92
2014-09-24T10:47:39.132Z,46.31
2014-09-24T10:48:43.806Z,45.79
2014-09-24T10:49:48.809Z,47.24
2014-09-24T10:50:53.498Z,45.76
2014-09-24T10:51:58.188Z,45.55
2014-09-24T10:53:02.878Z,46.86
2014-09-24T10:54:07.551Z,46.47
2014-09-24T10:55:12.538Z,45.48
2014-09-24T10:56:17.226Z,45.99
2014-09-24T10:57:21.917Z,45.59
2014-09-24T10:58:26.591Z,46.05
2014-09-24T10:59:31.280Z,46.72
2014-09-24T11:00:35.970Z,46.92
2014-09-24T11:01:40.660Z,45.37
2014-09-24T11:02:45.349Z,45.64
2014-09-24T11:03:50.024Z,46.43
2014-09-24T11:04:54.712Z,46.38
2014-09-24T11:05:59.403Z,46.84
2014-09-24T11:07:04.092Z,47.11
2014-09-24T11:08:08.782Z,46.28
2014-09-24T11:09:13.471Z,45.26
2014-09-24T11:10:18.161Z,46.33
2014-09-24T11:11:22.850Z,45
2014-09-24T11:12:27.836Z,44.74
2014-09-24T11:13:32.823Z,45.36
2014-09-24T11:14:37.512Z,45.39
2014-09-24T11:15:42.186Z,44.72
2014-09-24T11:16:46.891Z,45.16
2014-09-24T11:17:51.581Z,45.41
2014-09-24T11:18:56.271Z,45.04
2014-09-24T11:20:00.960Z,45.42
2014-09-24T11:21:05.650Z,45.09
2014-09-24T11:22:10.339Z,44.71
2014-09-24T11:23:15.029Z,45.12
2014-09-24T11:24:19.718Z,45.9
2014-09-24T11:25:24.407Z,45.28
2014-09-24T11:26:29.082Z,44.75
2014-09-24T11:27:34.069Z,44.24
2014-09-24T11:28:39.055Z,44.2
2014-09-24T11:29:43.744Z,43.52
2014-09-24T11:30:48.434Z,44.55
2014-09-24T11:31:52.436Z,44.31
2014-09-24T11:32:57.126Z,43.88
2014-09-24T11:34:02.112Z,43.91
2014-09-24T11:35:06.801Z,43.98
2014-09-24T11:36:11.492Z,43.98
2014-09-24T11:37:16.477Z,44.73
2014-09-24T11:38:21.168Z,44.66
2014-09-24T11:39:25.857Z,44.38
2014-09-24T11:40:30.547Z,42.73
2014-09-24T11:41:35.236Z,42.72
2014-09-24T11:42:39.926Z,42.89
2014-09-24T11:43:44.896Z,44.55
2014-09-24T11:44:49.586Z,43.6
2014-09-24T11:45:54.869Z,43.47
2014-09-24T11:46:59.559Z,45.42
2014-09-24T11:48:04.546Z,46.21
2014-09-24T11:49:09.236Z,46.81
2014-09-24T11:50:13.925Z,47.04
2014-09-24T11:51:18.614Z,47.13
2014-09-24T11:52:23.304Z,47.28
2014-09-24T11:53:27.994Z,48.56
2014-09-24T11:54:32.667Z,47.02
2014-09-24T11:55:37.357Z,46.7
2014-09-24T11:56:42.046Z,46.07
2014-09-24T11:57:46.736Z,46.32
2014-09-24T11:58:51.425Z,47.01
2014-09-24T11:59:56.115Z,48.13
2014-09-24T12:01:00.804Z,47.75
2014-09-24T12:02:05.478Z,46.21
2014-09-24T12:03:10.168Z,46.66
2014-09-24T12:04:14.170Z,47.72
2014-09-24T12:05:18.860Z,47.84
2014-09-24T12:06:23.550Z,47.32
2014-09-24T12:07:28.238Z,49.43
2014-09-24T12:08:32.943Z,49.56
2014-09-24T12:09:37.634Z,48.11
2014-09-24T12:10:42.323Z,48.15
2014-09-24T12:11:47.013Z,46.78
2014-09-24T12:12:51.702Z,47.09
2014-09-24T12:13:56.392Z,47.3
2014-09-24T12:15:01.081Z,45.75
2014-09-24T12:16:05.771Z,45.62
2014-09-24T12:17:10.757Z,46.41
2014-09-24T12:18:15.447Z,45.25
2014-09-24T12:19:20.136Z,46.98
2014-09-24T12:20:24.811Z,45.19
2014-09-24T12:21:29.500Z,44.56
2014-09-24T12:22:34.190Z,45.16
2014-09-24T12:23:38.879Z,44.46
2014-09-24T12:24:43.866Z,44.04
2014-09-24T12:25:48.852Z,44.97
2014-09-24T12:26:53.839Z,43.69
2014-09-24T12:27:58.528Z,43.91
2014-09-24T12:29:03.218Z,43.65
2014-09-24T12:30:07.923Z,43.08
2014-09-24T12:31:12.597Z,44.09
2014-09-24T12:32:17.286Z,43.96
2014-09-24T12:33:21.991Z,43.06
2014-09-24T12:34:26.681Z,43.02
2014-09-24T12:35:31.370Z,43.83
2014-09-24T12:36:36.061Z,43.99
2014-09-24T12:37:40.734Z,45.09
2014-09-24T12:38:45.424Z,44.73
2014-09-24T12:39:50.410Z,44.09
2014-09-24T12:40:55.397Z,45.24
2014-09-24T12:42:00.087Z,44.72
2014-09-24T12:43:04.776Z,45.34
2014-09-24T12:44:09.762Z,41.88
2014-09-24T12:45:14.452Z,42.09
2014-09-24T12:46:19.141Z,43.23
2014-09-24T12:47:24.128Z,42.28
2014-09-24T12:48:28.811Z,41.94
2014-09-24T12:49:33.796Z,43.56
2014-09-24T12:50:38.485Z,42.85
2014-09-24T12:51:43.473Z,42.85
2014-09-24T12:52:48.161Z,42.56
2014-09-24T12:53:52.866Z,43.55
2014-09-24T12:54:57.854Z,44.2
2014-09-24T12:56:02.542Z,45.36
2014-09-24T12:57:07.514Z,45.21
2014-09-24T12:58:12.219Z,45.67
2014-09-24T12:59:16.909Z,45.13
2014-09-24T13:00:21.584Z,44.77
2014-09-24T13:01:26.272Z,44.72
2014-09-24T13:02:31.258Z,45.14
2014-09-24T13:03:35.948Z,44.64
2014-09-24T13:04:40.622Z,45.17
2014-09-24T13:05:45.312Z,44.13
2014-09-24T13:06:50.299Z,44.29
2014-09-24T13:07:54.973Z,44.03
2014-09-24T13:08:59.662Z,45.7
2014-09-24T13:10:04.647Z,46.03
2014-09-24T13:11:09.635Z,46.78
2014-09-24T13:12:14.605Z,48.52
2014-09-24T13:13:19.295Z,47.36
2014-09-24T13:14:23.985Z,48.03
2014-09-24T13:15:28.674Z,49.03
2014-09-24T13:16:33.348Z,48.71
2014-09-24T13:17:38.335Z,49.09
2014-09-24T13:18:43.024Z,49.73
2014-09-24T13:19:48.011Z,50.34
2014-09-24T13:20:52.700Z,49.23
2014-09-24T13:21:57.375Z,48.57
2014-09-24T13:23:02.064Z,48.29
2014-09-24T13:24:06.754Z,49.62
2014-09-24T13:25:11.427Z,48.61
2014-09-24T13:26:16.117Z,47.95
2014-09-24T13:27:21.103Z,47.97
2014-09-24T13:28:25.793Z,49.46
2014-09-24T13:29:30.467Z,49.27
2014-09-24T13:30:35.156Z,49.42
2014-09-24T13:31:39.830Z,49.69
2014-09-24T13:32:44.817Z,49.73
2014-09-24T13:33:49.506Z,49.36
2014-09-24T13:34:54.195Z,50.32
2014-09-24T13:35:58.870Z,49.57
2014-09-24T13:37:03.560Z,50.39
2014-09-24T13:38:08.248Z,50.01
2014-09-24T13:39:12.923Z,49.49
2014-09-24T13:40:16.924Z,49.12
2014-09-24T13:41:21.615Z,49.12
2014-09-24T13:42:26.289Z,49.87
2014-09-24T13:43:30.978Z,50.18
2014-09-24T13:44:35.668Z,49.62
2014-09-24T13:45:40.341Z,49.43
2014-09-24T13:46:45.031Z,49.53
2014-09-24T13:47:49.720Z,48.93
2014-09-24T13:48:54.988Z,49.13
2014-09-24T13:49:59.679Z,49.74
2014-09-24T13:51:04.368Z,50.72
2014-09-24T13:52:08.353Z,50.36
2014-09-24T13:53:13.043Z,50.09
2014-09-24T13:54:17.733Z,49.88
2014-09-24T13:55:22.423Z,50.82